Time;durP1;ratioP1;P1;durP2;ratioP2;P2;SDS_P1;SDS_P2;PMS_P1;PMS_P2;Temp;Humidity;BMP_temperature;BMP_pressure;BME280_temperature;BME280_humidity;BME280_pressure;Samples;Min_cycle;Max_cycle;Signal;HPM_P1;HPM_P2
2023/08/28 00:02:14;;;;;;;;;3.33;2.00;;;;;17.68;59.52;100808.06;5056523;28;45543;-70
2023/08/28 00:04:39;;;;;;;;;0.67;0.67;;;;;18.30;59.28;100918.66;5055498;28;45462;-69
2023/08/28 00:07:04;;;;;;;;;2.00;2.00;;;;;18.34;59.07;100924.47;5057035;28;45376;-70
2023/08/28 00:09:30;;;;;;;;;2.67;1.33;;;;;18.35;59.21;100921.59;5057107;28;45466;-68
2023/08/28 00:11:55;;;;;;;;;1.00;0.00;;;;;18.33;59.23;100918.25;5056383;28;55267;-71
2023/08/28 00:14:21;;;;;;;;;2.50;1.75;;;;;18.38;59.29;100915.00;5056837;28;50070;-71
2023/08/28 00:16:46;;;;;;;;;0.33;0.33;;;;;18.36;59.05;100914.34;5059023;28;45698;-69
2023/08/28 00:19:11;;;;;;;;;0.50;0.50;;;;;18.39;59.17;100913.97;5060323;28;45466;-70
2023/08/28 00:21:37;;;;;;;;;0.33;0.33;;;;;18.33;58.95;100895.91;5060101;28;45543;-70
2023/08/28 00:24:03;;;;;;;;;1.67;1.00;;;;;18.39;59.14;100912.09;5060125;28;45445;-70
2023/08/28 00:26:28;;;;;;;;;1.00;1.00;;;;;18.37;59.00;100905.25;5060356;28;45201;-69
2023/08/28 00:28:54;;;;;;;;;0.00;0.00;;;;;18.36;58.83;100901.72;5059979;28;53766;-70
2023/08/28 00:31:19;;;;;;;;;1.75;1.00;;;;;18.37;58.64;100903.41;5059951;28;45787;-70
2023/08/28 00:33:45;;;;;;;;;1.00;1.00;;;;;18.40;59.28;100913.78;5059034;28;67995;-70
2023/08/28 00:36:10;;;;;;;;;2.33;1.00;;;;;18.36;59.17;100896.34;5060061;28;45298;-69
2023/08/28 00:38:36;;;;;;;;;1.25;1.25;;;;;18.31;59.06;100876.41;5060362;28;45362;-69
2023/08/28 00:41:03;;;;;;;;;2.67;0.00;;;;;18.39;58.84;100890.56;5059979;28;45710;-70
2023/08/28 00:43:28;;;;;;;;;1.00;0.00;;;;;18.47;58.67;100908.47;5059830;28;45295;-70
2023/08/28 00:45:55;;;;;;;;;3.00;2.00;;;;;18.13;58.92;100836.47;5060173;28;45236;-71
2023/08/28 00:48:21;;;;;;;;;1.50;0.00;;;;;18.43;59.46;100883.81;5075531;27;45552;-69
2023/08/28 00:50:47;;;;;;;;;1.00;1.00;;;;;18.47;59.08;100892.31;5059657;28;45844;-69
2023/08/28 00:53:13;;;;;;;;;0.00;0.00;;;;;18.21;59.27;100842.56;5059788;28;45458;-70
2023/08/28 00:55:39;;;;;;;;;0.00;0.00;;;;;18.49;59.05;100891.09;5059903;28;45335;-70
2023/08/28 00:58:05;;;;;;;;;2.00;1.00;;;;;18.45;59.40;100873.69;5060098;28;45374;-69
2023/08/28 01:00:30;;;;;;;;;0.00;0.00;;;;;18.50;59.26;100879.31;5059486;28;46014;-69
2023/08/28 01:02:55;;;;;;;;;1.67;1.67;;;;;18.46;59.41;100875.34;5059316;28;45435;-71
2023/08/28 01:05:32;;;;;;;;;0.00;0.00;;;;;18.43;59.55;100869.53;5059788;28;45366;-70
2023/08/28 01:08:06;;;;;;;;;0.75;0.75;;;;;18.36;59.38;100876.66;5059802;28;45553;-70
2023/08/28 01:10:41;;;;;;;;;0.00;0.00;;;;;18.36;59.56;100874.81;5059645;28;46869;-69
2023/08/28 01:13:31;;;;;;;;;1.33;1.33;;;;;18.40;59.74;100886.84;5059512;28;45334;-69
2023/08/28 01:15:59;;;;;;;;;1.67;1.00;;;;;18.37;60.07;100881.88;5059583;28;45695;-71
2023/08/28 01:18:26;;;;;;;;;0.00;0.00;;;;;18.32;59.87;100867.31;5059331;28;45346;-69
2023/08/28 01:20:53;;;;;;;;;0.67;0.67;;;;;18.36;59.82;100874.81;5059379;28;45568;-70
2023/08/28 01:23:46;;;;;;;;;2.50;0.75;;;;;18.11;59.76;100843.91;5059474;28;45275;-70
2023/08/28 01:26:12;;;;;;;;;0.33;0.33;;;;;18.36;60.10;100885.56;5059505;28;45315;-70
2023/08/28 01:28:38;;;;;;;;;2.67;1.67;;;;;18.26;60.15;100874.31;5058406;28;45532;-69
2023/08/28 01:31:07;;;;;;;;;1.00;1.00;;;;;18.26;60.30;100870.78;5059112;28;45933;-69
2023/08/28 01:33:34;;;;;;;;;2.33;1.00;;;;;18.22;60.01;100856.88;5074601;27;45308;-70
2023/08/28 01:36:36;;;;;;;;;1.00;1.00;;;;;18.30;60.00;100872.91;5059271;28;45428;-71
2023/08/28 01:39:21;;;;;;;;;0.67;0.67;;;;;18.21;60.27;100861.41;5059751;28;45391;-69
2023/08/28 01:41:49;;;;;;;;;1.00;0.67;;;;;18.20;60.67;100866.97;5057755;28;46509;-69
2023/08/28 01:44:17;;;;;;;;;2.00;0.00;;;;;17.82;60.67;100805.34;5059084;28;45398;-69
2023/08/28 01:46:43;;;;;;;;;1.67;0.67;;;;;18.11;60.87;100841.22;5059171;28;45315;-69
2023/08/28 01:49:08;;;;;;;;;0.00;0.00;;;;;18.21;60.56;100857.88;5058765;28;45332;-70
2023/08/28 01:51:33;;;;;;;;;2.67;0.00;;;;;18.21;60.49;100855.19;5058649;28;48262;-70
2023/08/28 01:53:59;;;;;;;;;0.75;0.75;;;;;18.06;60.62;100836.41;5059142;28;45422;-70
2023/08/28 01:56:24;;;;;;;;;2.00;0.00;;;;;18.11;60.72;100844.75;5059067;28;45245;-69
2023/08/28 01:58:57;;;;;;;;;0.33;0.33;;;;;18.07;61.03;100842.63;5059227;28;45438;-69
2023/08/28 02:01:24;;;;;;;;;0.67;0.67;;;;;18.11;60.92;100852.00;5057393;28;46997;-71
2023/08/28 02:03:49;;;;;;;;;1.00;1.00;;;;;18.07;60.93;100842.63;5058360;28;45291;-70
2023/08/28 02:06:15;;;;;;;;;2.00;0.33;;;;;18.15;61.24;100850.56;5058821;28;45250;-71
2023/08/28 02:08:41;;;;;;;;;2.00;1.00;;;;;18.13;60.80;100848.06;5059187;28;45395;-70
2023/08/28 02:11:06;;;;;;;;;0.33;0.33;;;;;18.10;60.81;100844.94;5058701;28;46288;-70
2023/08/28 02:13:32;;;;;;;;;1.50;1.00;;;;;17.75;61.31;100799.03;5058547;28;45233;-69
2023/08/28 02:15:58;;;;;;;;;3.67;0.00;;;;;18.04;60.98;100832.25;5058774;28;45517;-70
2023/08/28 02:18:23;;;;;;;;;0.75;0.75;;;;;18.18;61.26;100855.56;5058840;28;45214;-69
2023/08/28 02:20:49;;;;;;;;;2.00;0.67;;;;;18.15;61.22;100842.50;5058891;28;46793;-68
2023/08/28 02:23:14;;;;;;;;;0.00;0.00;;;;;17.83;61.13;100788.16;5058504;28;45414;-69
2023/08/28 02:25:43;;;;;;;;;2.00;1.00;;;;;18.02;60.90;100818.13;5058439;28;49105;-69
2023/08/28 02:28:09;;;;;;;;;0.00;0.00;;;;;18.16;61.24;100836.09;5074402;27;45477;-70
2023/08/28 02:30:34;;;;;;;;;1.00;1.00;;;;;18.18;61.56;100850.19;5058438;28;45613;-71
2023/08/28 02:33:00;;;;;;;;;1.00;1.00;;;;;18.20;60.94;100850.84;5073569;28;46023;-70
2023/08/28 02:35:25;;;;;;;;;0.00;0.00;;;;;18.20;61.03;100846.28;5058509;28;45233;-70
2023/08/28 02:37:50;;;;;;;;;0.00;0.00;;;;;18.17;61.45;100853.91;5058500;28;45260;-70
2023/08/28 02:40:16;;;;;;;;;0.00;0.00;;;;;18.15;61.37;100842.50;5057634;28;45358;-71
2023/08/28 02:42:41;;;;;;;;;0.50;0.00;;;;;18.13;61.63;100836.47;5058158;28;45253;-70
2023/08/28 02:45:07;;;;;;;;;1.00;1.00;;;;;18.16;61.22;100844.16;5058102;28;45219;-69
2023/08/28 02:47:32;;;;;;;;;0.00;0.00;;;;;18.22;61.53;100859.56;5073688;27;45534;-71
2023/08/28 02:49:58;;;;;;;;;2.67;0.00;;;;;18.16;61.26;100846.84;5057700;28;45671;-68
2023/08/28 02:52:26;;;;;;;;;1.00;1.00;;;;;18.26;61.08;100868.94;5057742;28;51590;-70
2023/08/28 02:54:51;;;;;;;;;1.50;0.25;;;;;18.31;61.20;100866.47;5056654;28;45525;-70
2023/08/28 02:57:18;;;;;;;;;0.50;0.50;;;;;18.18;61.01;100845.63;5058184;28;45325;-70
2023/08/28 02:59:43;;;;;;;;;0.50;0.50;;;;;18.13;61.24;100845.38;5057762;28;46752;-70
2023/08/28 03:02:09;;;;;;;;;0.75;0.75;;;;;18.25;61.33;100867.25;5057551;28;45604;-71
2023/08/28 03:04:35;;;;;;;;;2.00;2.00;;;;;18.29;61.39;100871.22;5057950;28;45489;-68
2023/08/28 03:07:00;;;;;;;;;0.25;0.25;;;;;18.30;61.33;100864.00;5057967;28;45628;-70
2023/08/28 03:09:26;;;;;;;;;0.33;0.33;;;;;18.28;61.22;100874.13;5072988;28;48331;-70
2023/08/28 03:11:51;;;;;;;;;2.00;2.00;;;;;18.29;61.32;100862.31;5057637;28;45515;-69
2023/08/28 03:14:16;;;;;;;;;0.00;0.00;;;;;18.26;61.66;100871.63;5057774;28;45741;-69
2023/08/28 03:16:41;;;;;;;;;0.75;0.75;;;;;18.23;61.67;100863.94;5057631;28;45544;-69
2023/08/28 03:19:07;;;;;;;;;1.00;1.00;;;;;18.06;61.44;100835.59;5072065;28;62053;-69
2023/08/28 03:21:34;;;;;;;;;2.33;2.33;;;;;18.20;61.85;100864.28;5057462;28;45166;-71
2023/08/28 03:23:59;;;;;;;;;1.00;1.00;;;;;18.23;61.66;100874.69;5057864;28;45518;-69
2023/08/28 03:26:25;;;;;;;;;1.00;1.00;;;;;18.20;61.57;100880.44;5057500;28;50738;-69
2023/08/28 03:28:50;;;;;;;;;1.00;1.00;;;;;18.20;62.00;100883.13;5057619;28;45711;-69
2023/08/28 03:31:16;;;;;;;;;1.33;0.67;;;;;18.20;61.83;100888.50;5072915;28;46254;-69
2023/08/28 03:33:41;;;;;;;;;0.67;0.67;;;;;18.15;61.96;100885.56;5057081;28;45382;-69
2023/08/28 03:36:07;;;;;;;;;2.75;0.00;;;;;18.12;61.99;100881.41;5057797;28;45473;-68
2023/08/28 03:38:32;;;;;;;;;0.00;0.00;;;;;18.16;62.14;100881.84;5057268;28;46267;-70
2023/08/28 03:40:57;;;;;;;;;1.00;1.00;;;;;18.17;61.99;100880.81;5057035;28;45433;-70
2023/08/28 03:43:25;;;;;;;;;0.00;0.00;;;;;17.97;62.04;100851.00;5057662;28;45398;-70
2023/08/28 03:45:51;;;;;;;;;1.50;1.00;;;;;18.26;61.74;100903.91;5057160;28;45507;-70
2023/08/28 03:48:16;;;;;;;;;2.50;0.50;;;;;18.27;62.13;100886.75;5072178;28;48764;-70
2023/08/28 03:50:42;;;;;;;;;0.00;0.00;;;;;18.22;62.26;100887.31;5054784;28;46598;-70
2023/08/28 03:53:07;;;;;;;;;2.25;0.00;;;;;18.24;62.04;100877.19;5057296;28;45204;-70
2023/08/28 03:55:32;;;;;;;;;1.00;1.00;;;;;18.21;61.56;100880.25;5056291;28;45443;-71
2023/08/28 03:58:02;;;;;;;;;0.67;0.00;;;;;18.21;62.16;100882.94;5056811;28;45866;-70
2023/08/28 04:00:27;;;;;;;;;2.33;1.00;;;;;18.24;62.09;100887.13;5056668;28;45366;-70
2023/08/28 04:02:53;;;;;;;;;3.00;1.00;;;;;18.23;62.37;100897.06;5056880;28;45538;-69
2023/08/28 04:05:19;;;;;;;;;2.00;1.00;;;;;18.16;62.37;100879.97;5057301;28;45409;-68
2023/08/28 04:07:44;;;;;;;;;1.00;1.00;;;;;18.25;62.30;100896.88;5072224;27;48461;-71
2023/08/28 04:10:11;;;;;;;;;0.00;0.00;;;;;18.14;62.46;100884.72;5056746;28;45379;-69
2023/08/28 04:12:37;;;;;;;;;2.00;2.00;;;;;18.20;62.26;100891.19;5072402;28;45251;-70
2023/08/28 04:15:03;;;;;;;;;0.67;0.67;;;;;18.29;62.20;100902.69;5056970;28;45238;-70
2023/08/28 04:17:29;;;;;;;;;2.67;1.00;;;;;18.19;62.13;100884.16;5056000;28;45784;-72
2023/08/28 04:19:55;;;;;;;;;2.00;0.33;;;;;18.31;62.34;100897.94;5056455;28;45408;-71
2023/08/28 04:22:21;;;;;;;;;1.00;0.00;;;;;18.28;62.26;100899.16;5056618;28;45374;-69
2023/08/28 04:24:50;;;;;;;;;0.00;0.00;;;;;18.20;62.21;100880.44;5056959;28;45396;-71
2023/08/28 04:27:15;;;;;;;;;1.00;0.00;;;;;18.32;62.30;100899.63;5071939;28;48765;-72
2023/08/28 04:29:41;;;;;;;;;2.25;1.25;;;;;18.28;62.63;100883.03;5056491;28;45209;-71
2023/08/28 04:32:06;;;;;;;;;2.00;0.67;;;;;18.27;62.32;100877.84;5071920;27;45491;-70
2023/08/28 04:34:32;;;;;;;;;0.33;0.33;;;;;18.36;62.22;100884.75;5056825;28;45288;-71
2023/08/28 04:36:57;;;;;;;;;0.00;0.00;;;;;18.37;62.19;100892.63;5056278;28;46151;-70
2023/08/28 04:39:25;;;;;;;;;1.00;1.00;;;;;18.30;62.37;100880.97;5056545;28;45403;-70
2023/08/28 04:41:52;;;;;;;;;1.00;1.00;;;;;18.35;62.29;100886.59;5056419;28;45423;-70
2023/08/28 04:44:18;;;;;;;;;1.67;0.33;;;;;18.23;62.34;100863.94;5071765;28;45562;-71
2023/08/28 04:46:43;;;;;;;;;2.00;2.00;;;;;18.35;62.29;100878.53;5056173;28;45776;-70
2023/08/28 04:49:09;;;;;;;;;1.00;1.00;;;;;18.12;62.42;100850.97;5056569;28;45272;-71
2023/08/28 04:51:35;;;;;;;;;0.00;0.00;;;;;18.27;62.50;100869.75;5055234;28;45412;-71
2023/08/28 04:54:00;;;;;;;;;0.00;0.00;;;;;18.22;62.51;100864.97;5056475;28;45233;-69
2023/08/28 04:56:25;;;;;;;;;1.33;0.00;;;;;18.25;62.49;100867.25;5054781;28;47447;-69
2023/08/28 04:58:51;;;;;;;;;2.33;1.00;;;;;18.30;62.69;100875.59;5055899;28;45476;-69
2023/08/28 05:01:16;;;;;;;;;2.00;2.00;;;;;18.21;62.48;100855.19;5071821;28;45764;-71
2023/08/28 05:03:41;;;;;;;;;1.00;1.00;;;;;18.26;62.78;100855.47;5058820;28;45204;-70
2023/08/28 05:06:07;;;;;;;;;1.00;1.00;;;;;18.32;62.49;100870.84;5059567;28;45574;-70
2023/08/28 05:08:32;;;;;;;;;1.67;1.67;;;;;18.21;62.48;100847.13;5059435;28;45248;-70
2023/08/28 05:10:57;;;;;;;;;0.33;0.00;;;;;18.28;62.72;100861.50;5059894;28;45212;-71
2023/08/28 05:13:23;;;;;;;;;3.00;1.00;;;;;18.36;62.94;100863.22;5059910;28;45478;-70
2023/08/28 05:15:48;;;;;;;;;4.00;4.00;;;;;18.27;62.72;100842.84;5058665;28;48390;-70
2023/08/28 05:18:14;;;;;;;;;0.33;0.33;;;;;18.34;62.70;100849.94;5058990;28;45470;-70
2023/08/28 05:20:40;;;;;;;;;2.00;1.25;;;;;18.36;62.57;100858.66;5057906;28;45419;-71
2023/08/28 05:23:06;;;;;;;;;0.33;0.33;;;;;18.17;62.53;100813.53;5059819;28;45311;-70
2023/08/28 05:25:31;;;;;;;;;1.00;1.00;;;;;18.42;62.36;100867.81;5058992;28;45603;-70
2023/08/28 05:27:56;;;;;;;;;1.00;1.00;;;;;18.17;62.38;100835.06;5059020;28;45257;-69
2023/08/28 05:30:23;;;;;;;;;2.00;1.00;;;;;18.32;62.03;100862.78;5059356;28;45457;-71
2023/08/28 05:32:48;;;;;;;;;1.00;1.00;;;;;18.43;62.31;100880.28;5075015;28;45491;-70
2023/08/28 05:35:13;;;;;;;;;1.00;1.00;;;;;18.37;62.31;100865.72;5059036;28;45383;-69
2023/08/28 05:37:39;;;;;;;;;3.00;2.00;;;;;18.40;62.33;100861.78;5058996;28;45278;-71
2023/08/28 05:40:05;;;;;;;;;1.75;1.00;;;;;18.41;62.16;100869.69;5058941;28;45495;-68
2023/08/28 05:42:30;;;;;;;;;2.00;0.00;;;;;18.43;62.22;100883.81;5059082;28;45623;-70
2023/08/28 05:44:56;;;;;;;;;1.00;1.00;;;;;18.43;62.42;100872.22;5058929;28;45866;-69
2023/08/28 05:47:21;;;;;;;;;4.67;4.33;;;;;18.45;63.07;100865.59;5058549;28;45556;-70
2023/08/28 05:49:47;;;;;;;;;4.00;1.33;;;;;18.47;62.84;100871.63;5059287;28;45204;-69
2023/08/28 05:52:12;;;;;;;;;1.00;1.00;;;;;18.49;62.47;100868.75;5059033;28;45524;-71
2023/08/28 05:54:38;;;;;;;;;2.75;2.75;;;;;18.52;62.65;100865.66;5058467;28;45777;-70
2023/08/28 05:57:03;;;;;;;;;2.75;2.00;;;;;18.50;62.65;100865.03;5058393;28;49956;-70
2023/08/28 05:59:29;;;;;;;;;1.33;1.00;;;;;18.35;63.26;100830.09;5057329;28;45437;-68
2023/08/28 06:01:54;;;;;;;;;1.00;1.00;;;;;18.60;62.27;100870.06;5073798;28;45361;-72
2023/08/28 06:04:19;;;;;;;;;1.00;1.00;;;;;18.66;61.91;100858.56;5058293;28;45657;-70
2023/08/28 06:06:45;;;;;;;;;1.33;1.33;;;;;18.67;62.12;100861.06;5058481;28;45507;-71
2023/08/28 06:09:10;;;;;;;;;1.00;1.00;;;;;18.73;61.88;100860.28;5058561;28;45272;-70
2023/08/28 06:11:35;;;;;;;;;1.25;0.00;;;;;18.72;62.04;100836.25;5058768;28;45424;-70
2023/08/28 06:14:01;;;;;;;;;8.00;4.00;;;;;18.84;61.97;100845.47;5057503;28;47746;-70
2023/08/28 06:16:26;;;;;;;;;2.00;1.00;;;;;18.86;61.99;100838.03;5058153;28;45474;-69
2023/08/28 06:18:51;;;;;;;;;2.00;2.00;;;;;18.90;61.50;100849.22;5057769;28;45469;-71
2023/08/28 06:21:17;;;;;;;;;3.33;1.33;;;;;18.66;61.36;100804.72;5058314;28;45336;-69
2023/08/28 06:23:42;;;;;;;;;1.00;1.00;;;;;18.98;61.91;100862.53;5058020;28;46128;-71
2023/08/28 06:26:08;;;;;;;;;3.00;1.00;;;;;19.01;61.55;100862.97;5057971;28;45479;-72
2023/08/28 06:28:33;;;;;;;;;2.00;2.00;;;;;18.96;61.00;100849.25;5058193;28;45820;-71
2023/08/28 06:31:03;;;;;;;;;3.25;1.00;;;;;19.13;61.08;100865.97;5057937;28;45220;-70
2023/08/28 06:33:28;;;;;;;;;1.67;1.00;;;;;19.13;60.63;100855.19;5057401;28;45504;-70
2023/08/28 06:35:54;;;;;;;;;1.00;1.00;;;;;19.20;60.86;100860.63;5057878;28;45266;-70
2023/08/28 06:38:19;;;;;;;;;1.00;1.00;;;;;19.25;60.52;100845.53;5058482;28;45336;-70
2023/08/28 06:40:52;;;;;;;;;1.00;1.00;;;;;19.36;60.41;100855.75;5056965;28;45616;-70
2023/08/28 06:43:17;;;;;;;;;4.00;1.00;;;;;19.45;60.12;100848.34;5057858;28;46829;-70
2023/08/28 06:45:44;;;;;;;;;1.00;1.00;;;;;19.53;60.33;100850.03;5073318;28;45584;-72
2023/08/28 06:48:10;;;;;;;;;1.00;1.00;;;;;19.23;59.68;100792.88;5073255;27;45592;-70
2023/08/28 06:50:35;;;;;;;;;1.00;1.00;;;;;19.56;59.76;100839.72;5058043;28;45350;-72
2023/08/28 06:53:00;;;;;;;;;3.33;1.67;;;;;19.71;59.92;100856.59;5058259;28;45418;-70
2023/08/28 06:55:26;;;;;;;;;2.67;1.00;;;;;19.83;58.95;100834.44;5057476;28;45417;-71
2023/08/28 06:57:51;;;;;;;;;5.00;3.00;;;;;19.73;58.99;100776.28;5057716;28;45411;-71
2023/08/28 07:00:17;;;;;;;;;3.00;3.00;;;;;20.43;57.87;100846.25;5057796;28;45438;-71
2023/08/28 07:02:42;;;;;;;;;3.33;3.33;;;;;20.52;57.51;100804.47;5072650;27;49038;-70
2023/08/28 07:05:07;;;;;;;;;1.67;1.67;;;;;21.17;56.39;100832.47;5060423;28;45517;-71
2023/08/28 07:07:33;;;;;;;;;2.00;2.00;;;;;21.63;54.64;100836.97;5069062;27;45453;-70
2023/08/28 07:09:58;;;;;;;;;1.67;1.67;;;;;21.91;54.39;100823.91;5065050;27;45477;-72
2023/08/28 07:12:24;;;;;;;;;1.00;1.00;;;;;22.06;53.86;100812.84;5077768;27;45349;-70
2023/08/28 07:15:20;;;;;;;;;1.00;1.00;;;;;22.44;52.70;100839.88;5068976;27;45446;-69
2023/08/28 07:17:46;;;;;;;;;3.00;3.00;;;;;22.59;52.16;100828.69;5058726;28;69495;-69
2023/08/28 07:20:11;;;;;;;;;4.33;2.67;;;;;22.69;52.17;100831.75;5056943;28;45193;-73
2023/08/28 07:22:37;;;;;;;;;2.33;2.33;;;;;22.66;52.13;100833.03;5056543;28;46812;-69
2023/08/28 07:25:02;;;;;;;;;1.00;1.00;;;;;22.61;51.93;100813.88;5056487;28;45423;-70
2023/08/28 07:27:28;;;;;;;;;3.00;1.75;;;;;22.64;52.21;100829.72;5056393;28;45254;-70
2023/08/28 07:29:53;;;;;;;;;6.33;5.67;;;;;22.59;51.80;100813.25;5057214;28;45534;-69
2023/08/28 07:32:19;;;;;;;;;2.75;2.75;;;;;22.60;51.61;100817.63;5056885;28;45551;-72
2023/08/28 07:34:44;;;;;;;;;3.67;3.67;;;;;22.78;51.72;100841.25;5072453;28;45487;-71
2023/08/28 07:37:09;;;;;;;;;1.00;1.00;;;;;22.87;51.41;100836.44;5072424;28;45295;-72
2023/08/28 07:39:35;;;;;;;;;1.50;1.50;;;;;22.61;51.39;100800.31;5057329;28;45467;-73
2023/08/28 07:42:00;;;;;;;;;2.75;2.75;;;;;22.74;51.51;100838.16;5056610;28;46491;-72
2023/08/28 07:44:25;;;;;;;;;2.00;2.00;;;;;22.30;51.65;100787.66;5056727;28;45209;-72
2023/08/28 07:46:51;;;;;;;;;2.25;1.00;;;;;22.43;52.36;100827.38;5056770;28;45452;-76
2023/08/28 07:49:19;;;;;;;;;2.67;2.33;;;;;22.24;52.52;100840.00;5072706;27;45502;-71
2023/08/28 07:51:45;;;;;;;;;1.00;1.00;;;;;21.92;52.56;100803.91;5072421;28;47385;-71
2023/08/28 07:54:11;;;;;;;;;5.00;5.00;;;;;22.00;53.84;100828.00;5071608;28;47653;-71
2023/08/28 07:56:37;;;;;;;;;5.00;3.33;;;;;21.86;53.51;100811.03;5075764;27;45282;-71
2023/08/28 07:59:03;;;;;;;;;3.33;3.33;;;;;21.96;53.81;100843.03;5093083;27;45457;-70
2023/08/28 08:01:30;;;;;;;;;4.33;4.33;;;;;21.90;53.50;100841.19;5077009;27;45716;-71
2023/08/28 08:03:56;;;;;;;;;5.00;4.00;;;;;21.85;53.59;100847.28;5076626;27;45561;-70
2023/08/28 08:06:22;;;;;;;;;5.00;4.67;;;;;21.80;53.74;100854.34;5092721;27;45360;-70
2023/08/28 08:08:48;;;;;;;;;4.00;3.00;;;;;21.78;53.94;100841.03;5075892;27;45522;-69
2023/08/28 08:11:13;;;;;;;;;4.67;4.67;;;;;21.62;53.66;100797.41;5074485;27;47416;-70
2023/08/28 08:13:39;;;;;;;;;4.00;4.00;;;;;21.90;53.95;100854.75;5076395;27;45261;-70
2023/08/28 08:16:04;;;;;;;;;5.00;4.00;;;;;21.95;54.05;100849.50;5075933;27;45375;-71
2023/08/28 08:18:30;;;;;;;;;4.00;4.00;;;;;21.98;53.75;100859.91;5062021;28;45529;-70
2023/08/28 08:20:55;;;;;;;;;4.67;4.67;;;;;21.99;53.82;100850.72;5055936;28;46616;-70
2023/08/28 08:23:21;;;;;;;;;3.00;3.00;;;;;22.00;53.97;100848.84;5055085;28;45719;-71
2023/08/28 08:25:46;;;;;;;;;4.67;4.67;;;;;22.05;53.69;100855.31;5061663;28;45241;-72
2023/08/28 08:28:12;;;;;;;;;3.00;3.00;;;;;22.17;53.71;100860.88;5077209;27;45283;-70
2023/08/28 08:30:37;;;;;;;;;5.00;5.00;;;;;22.29;53.22;100856.44;5070300;27;45664;-72
2023/08/28 08:33:03;;;;;;;;;4.33;3.67;;;;;22.06;53.39;100810.13;5063706;27;45299;-71
2023/08/28 08:35:28;;;;;;;;;3.00;3.00;;;;;22.55;52.68;100865.41;5058637;28;45414;-70
2023/08/28 08:37:54;;;;;;;;;5.00;3.00;;;;;22.62;51.94;100866.19;5057716;28;45311;-69
2023/08/28 08:40:24;;;;;;;;;5.00;5.00;;;;;22.75;52.10;100861.50;5057619;28;55062;-72
2023/08/28 08:42:49;;;;;;;;;4.00;4.00;;;;;22.93;51.71;100854.50;5059103;28;45458;-71
2023/08/28 08:45:15;;;;;;;;;3.00;3.00;;;;;23.18;51.07;100851.75;5056660;28;45636;-72
2023/08/28 08:47:41;;;;;;;;;4.00;4.00;;;;;23.28;50.21;100830.38;5057572;28;45570;-71
2023/08/28 08:50:08;;;;;;;;;4.67;3.67;;;;;23.69;49.72;100854.16;5057917;28;45661;-70
2023/08/28 08:52:38;;;;;;;;;4.00;4.00;;;;;23.85;48.80;100858.97;5058594;28;45351;-70
2023/08/28 08:55:15;;;;;;;;;4.33;4.33;;;;;23.98;48.66;100847.91;5057339;28;45455;-70
2023/08/28 08:57:44;;;;;;;;;5.67;5.67;;;;;24.21;47.81;100849.06;5058844;28;45490;-69
2023/08/28 09:00:12;;;;;;;;;5.00;5.00;;;;;24.42;47.61;100859.41;5059057;28;46348;-71
2023/08/28 09:02:40;;;;;;;;;4.33;4.33;;;;;24.46;47.65;100857.91;5058665;28;45349;-72
2023/08/28 09:05:06;;;;;;;;;5.33;4.33;;;;;24.54;47.36;100852.13;5059175;28;45190;-70
2023/08/28 09:07:32;;;;;;;;;4.67;4.67;;;;;24.22;47.09;100788.22;5059469;28;45174;-70
2023/08/28 09:09:59;;;;;;;;;4.00;4.00;;;;;25.10;46.34;100860.84;5057946;28;46379;-69
2023/08/28 09:12:24;;;;;;;;;3.00;3.00;;;;;25.84;44.94;100863.84;5056803;28;45501;-71
2023/08/28 09:14:49;;;;;;;;;8.00;7.00;;;;;26.23;43.85;100854.81;5074169;28;45562;-71
2023/08/28 09:17:15;;;;;;;;;6.33;6.33;;;;;26.26;43.43;100848.88;5058998;28;45170;-71
2023/08/28 09:19:43;;;;;;;;;3.00;3.00;;;;;26.29;44.13;100859.28;5058932;28;45473;-70
2023/08/28 09:22:09;;;;;;;;;3.00;3.00;;;;;26.35;43.34;100844.69;5058612;28;45244;-70
2023/08/28 09:24:36;;;;;;;;;3.67;3.67;;;;;26.77;42.54;100847.03;5059075;28;45285;-70
2023/08/28 09:27:03;;;;;;;;;7.00;5.33;;;;;26.84;41.93;100850.44;5058680;28;45311;-71
2023/08/28 09:29:29;;;;;;;;;4.33;4.33;;;;;26.66;42.28;100837.03;5057907;28;46601;-70
2023/08/28 09:32:03;;;;;;;;;4.00;3.33;;;;;27.20;41.62;100831.84;5073975;28;45320;-71
2023/08/28 09:34:37;;;;;;;;;2.00;2.00;;;;;28.13;39.58;100841.78;5058586;28;45301;-71
2023/08/28 09:37:03;;;;;;;;;4.00;3.33;;;;;29.81;36.55;100821.03;5058936;28;45421;-73
2023/08/28 09:39:28;;;;;;;;;3.00;3.00;;;;;31.39;33.38;100799.09;5058366;28;46308;-71
2023/08/28 09:41:54;;;;;;;;;3.25;3.25;;;;;32.03;32.35;100845.78;5058650;28;45571;-72
2023/08/28 09:44:19;;;;;;;;;5.67;4.33;;;;;33.01;31.41;100823.84;5074177;28;46555;-72
2023/08/28 09:46:46;;;;;;;;;4.33;2.33;;;;;34.26;29.14;100832.75;5058843;28;45495;-70
2023/08/28 09:49:13;;;;;;;;;4.33;4.33;;;;;34.86;28.28;100836.50;5056998;28;45872;-72
2023/08/28 09:51:45;;;;;;;;;3.00;3.00;;;;;34.18;28.81;100840.56;5058570;28;45451;-71
2023/08/28 09:54:13;;;;;;;;;4.00;4.00;;;;;33.29;29.60;100845.03;5058508;28;45290;-72
2023/08/28 09:56:39;;;;;;;;;4.00;3.00;;;;;32.51;30.45;100837.78;5058501;28;45300;-73
2023/08/28 09:59:06;;;;;;;;;4.00;2.67;;;;;31.28;30.85;100794.75;5057652;28;46560;-71
2023/08/28 10:01:34;;;;;;;;;3.00;3.00;;;;;30.13;33.16;100820.06;5057944;28;45219;-70
2023/08/28 10:04:01;;;;;;;;;2.00;2.00;;;;;29.39;33.84;100832.91;5073935;27;45474;-71
2023/08/28 10:06:28;;;;;;;;;5.00;3.00;;;;;28.62;35.61;100838.94;5074002;28;45359;-70
2023/08/28 10:08:58;;;;;;;;;2.33;2.33;;;;;27.93;36.74;100830.63;5073543;27;46595;-71
2023/08/28 10:11:33;;;;;;;;;9.00;7.00;;;;;27.35;38.57;100839.44;5073672;27;45292;-71
2023/08/28 10:14:00;;;;;;;;;2.00;2.00;;;;;26.41;39.13;100776.59;5058522;28;45245;-72
2023/08/28 10:16:29;;;;;;;;;5.00;3.00;;;;;26.21;40.09;100829.66;5058355;28;45470;-70
2023/08/28 10:19:07;;;;;;;;;4.00;4.00;;;;;25.90;41.56;100843.81;5072887;27;47485;-71
2023/08/28 10:21:34;;;;;;;;;4.00;4.00;;;;;25.60;42.68;100852.97;5073001;28;45293;-75
2023/08/28 10:24:01;;;;;;;;;5.67;4.67;;;;;25.30;43.85;100849.59;5056676;28;45252;-71
2023/08/28 10:26:27;;;;;;;;;3.67;3.67;;;;;24.90;45.36;100850.31;5057815;28;45477;-71
2023/08/28 10:28:53;;;;;;;;;6.00;5.00;;;;;24.50;48.14;100850.13;5057992;28;45861;-71
2023/08/28 10:31:19;;;;;;;;;6.00;4.33;;;;;24.10;49.16;100855.28;5060296;28;45510;-71
2023/08/28 10:33:47;;;;;;;;;6.00;6.00;;;;;23.80;50.15;100849.81;5057678;28;45429;-70
2023/08/28 10:36:15;;;;;;;;;5.33;5.33;;;;;23.71;50.47;100862.06;5083886;27;45561;-71
2023/08/28 10:38:42;;;;;;;;;5.00;5.00;;;;;23.42;50.60;100841.91;5069440;28;45450;-70
2023/08/28 10:41:08;;;;;;;;;6.00;6.00;;;;;23.34;52.27;100860.16;5076646;28;45328;-72
2023/08/28 10:43:34;;;;;;;;;6.33;5.00;;;;;23.13;51.18;100863.28;5078089;27;45317;-71
2023/08/28 10:46:03;;;;;;;;;6.00;6.00;;;;;22.86;52.13;100819.34;5094076;27;45350;-69
2023/08/28 10:48:28;;;;;;;;;5.33;5.33;;;;;23.06;52.44;100854.41;5077534;27;46671;-69
2023/08/28 10:50:58;;;;;;;;;9.00;9.00;;;;;22.98;53.18;100857.38;5077782;27;45453;-71
2023/08/28 10:53:23;;;;;;;;;5.33;5.00;;;;;22.68;54.08;100817.38;5071495;27;45489;-73
2023/08/28 10:55:52;;;;;;;;;6.33;5.33;;;;;22.92;52.80;100869.13;5080976;27;45430;-73
2023/08/28 10:58:18;;;;;;;;;4.33;4.33;;;;;22.85;52.74;100868.34;5057084;28;46417;-73
2023/08/28 11:00:43;;;;;;;;;7.00;6.00;;;;;22.74;52.09;100840.88;5056055;28;45395;-74
2023/08/28 11:03:15;;;;;;;;;4.67;4.67;;;;;22.89;52.30;100858.72;5061223;28;45568;-74
2023/08/28 11:05:42;;;;;;;;;4.33;4.33;;;;;22.93;51.69;100865.34;5056841;28;45320;-74
2023/08/28 11:08:11;;;;;;;;;4.00;4.00;;;;;22.91;51.30;100849.31;5057945;28;45802;-72
2023/08/28 11:10:38;;;;;;;;;4.00;4.00;;;;;23.10;51.07;100852.06;5057246;28;45577;-75
2023/08/28 11:13:08;;;;;;;;;5.00;3.67;;;;;23.23;50.48;100850.06;5057180;28;45548;-74
2023/08/28 11:15:42;;;;;;;;;2.67;2.67;;;;;23.14;49.63;100786.28;5056140;28;45285;-74
2023/08/28 11:18:19;;;;;;;;;5.00;5.00;;;;;23.78;48.80;100850.06;5063237;28;46606;-73
2023/08/28 11:20:55;;;;;;;;;6.33;6.33;;;;;23.92;48.76;100829.81;5056696;27;45551;-74
2023/08/28 11:23:38;;;;;;;;;5.00;5.00;;;;;24.11;48.63;100821.63;5057193;28;45498;-74